Time;durP1;ratioP1;P1;durP2;ratioP2;P2;SDS_P1;SDS_P2;PMS_P1;PMS_P2;Temp;Humidity;BMP_temperature;BMP_pressure;BME280_temperature;BME280_humidity;BME280_pressure;Samples;Min_cycle;Max_cycle;Signal;HPM_P1;HPM_P2
2023/09/15 00:01:11;;;;;;;;;;;22.20;46.40;;;;;;5070851;28;19963;-59
2023/09/15 00:03:39;;;;;;;;;;;22.30;46.40;;;;;;5071389;28;20179;-59
2023/09/15 00:06:06;;;;;;;;;;;22.20;46.40;;;;;;5054190;28;19968;-60
2023/09/15 00:08:33;;;;;;;;;;;22.20;46.40;;;;;;5073494;28;20011;-59
2023/09/15 00:11:00;;;;;;;;;;;22.20;46.40;;;;;;5052699;28;20010;-60
2023/09/15 00:13:27;;;;;;;;;;;22.20;46.40;;;;;;5071639;28;19924;-60
2023/09/15 00:15:54;;;;;;;;;;;22.20;46.40;;;;;;5074480;28;19987;-60
2023/09/15 00:18:20;;;;;;;;;;;22.20;46.40;;;;;;5053427;28;19928;-60
2023/09/15 00:20:49;;;;;;;;;;;22.20;46.30;;;;;;5053405;28;19947;-61
2023/09/15 00:23:17;;;;;;;;;;;22.20;46.30;;;;;;5052989;28;19925;-59
2023/09/15 00:25:45;;;;;;;;;;;22.20;46.30;;;;;;5073547;28;20030;-59
2023/09/15 00:28:13;;;;;;;;;;;22.20;46.30;;;;;;5060620;28;19925;-59
2023/09/15 00:30:39;;;;;;;;;;;22.20;46.30;;;;;;5070821;28;19928;-59
2023/09/15 00:33:06;;;;;;;;;;;22.20;46.30;;;;;;5052959;28;19931;-60
2023/09/15 00:35:33;;;;;;;;;;;22.20;46.30;;;;;;5056895;28;19931;-59
2023/09/15 00:38:02;;;;;;;;;;;22.20;46.30;;;;;;5062650;28;19924;-59
2023/09/15 00:40:29;;;;;;;;;;;22.20;46.30;;;;;;5080711;28;20298;-60
2023/09/15 00:42:55;;;;;;;;;;;22.20;46.30;;;;;;5073718;28;19932;-60
2023/09/15 00:45:22;;;;;;;;;;;22.20;46.30;;;;;;5083750;28;19962;-59
2023/09/15 00:47:52;;;;;;;;;;;22.20;46.30;;;;;;5077026;28;20433;-59
2023/09/15 00:50:21;;;;;;;;;;;22.20;46.30;;;;;;5057140;28;19978;-60
2023/09/15 00:52:49;;;;;;;;;;;22.20;46.30;;;;;;5053607;28;19932;-60
2023/09/15 00:55:19;;;;;;;;;;;22.20;46.30;;;;;;5073726;28;19981;-60
2023/09/15 00:57:46;;;;;;;;;;;22.20;46.30;;;;;;5065693;28;20009;-59
2023/09/15 01:00:14;;;;;;;;;;;22.20;46.30;;;;;;5070582;28;19981;-59
2023/09/15 01:02:42;;;;;;;;;;;22.20;46.30;;;;;;5069267;28;20354;-59
2023/09/15 01:05:10;;;;;;;;;;;22.20;46.30;;;;;;5071365;28;19990;-59
2023/09/15 01:07:37;;;;;;;;;;;22.20;46.30;;;;;;5069374;28;19925;-60
2023/09/15 01:10:04;;;;;;;;;;;22.20;46.30;;;;;;5075082;28;20017;-59
2023/09/15 01:12:33;;;;;;;;;;;22.20;46.20;;;;;;5076438;28;20522;-59
2023/09/15 01:14:59;;;;;;;;;;;22.20;46.20;;;;;;5068923;28;19924;-60
2023/09/15 01:17:27;;;;;;;;;;;22.10;46.20;;;;;;5068312;28;19970;-60
2023/09/15 01:19:59;;;;;;;;;;;22.10;46.20;;;;;;5078584;28;19969;-59
2023/09/15 01:22:45;;;;;;;;;;;22.10;46.20;;;;;;5103462;28;19925;-60
2023/09/15 01:25:16;;;;;;;;;;;22.10;46.20;;;;;;5073869;28;20380;-61
2023/09/15 01:27:51;;;;;;;;;;;22.10;46.20;;;;;;5079595;28;19924;-60
2023/09/15 01:30:19;;;;;;;;;;;22.10;46.20;;;;;;5084573;28;19928;-59
2023/09/15 01:32:46;;;;;;;;;;;22.10;46.20;;;;;;5078455;28;20003;-60
2023/09/15 01:35:13;;;;;;;;;;;22.10;46.20;;;;;;5074591;28;19927;-59
2023/09/15 01:37:40;;;;;;;;;;;22.10;46.20;;;;;;5072015;28;19998;-59
2023/09/15 01:40:08;;;;;;;;;;;22.10;46.20;;;;;;5074943;28;20340;-60
2023/09/15 01:42:34;;;;;;;;;;;22.10;46.20;;;;;;5080290;28;20370;-60
2023/09/15 01:45:01;;;;;;;;;;;22.10;46.10;;;;;;5095921;28;19925;-59
2023/09/15 01:47:29;;;;;;;;;;;22.10;46.20;;;;;;5076131;28;19939;-60
2023/09/15 01:49:56;;;;;;;;;;;22.10;46.20;;;;;;5073674;28;19924;-59
2023/09/15 01:52:23;;;;;;;;;;;22.10;46.10;;;;;;5075883;28;19924;-60
2023/09/15 01:54:50;;;;;;;;;;;22.10;46.20;;;;;;5072408;28;20400;-59
2023/09/15 01:57:16;;;;;;;;;;;22.10;46.10;;;;;;5081592;28;19939;-60
2023/09/15 01:59:43;;;;;;;;;;;22.10;46.10;;;;;;5071425;28;20111;-60
2023/09/15 02:02:10;;;;;;;;;;;22.10;46.10;;;;;;5091150;28;19939;-59
2023/09/15 02:04:38;;;;;;;;;;;22.10;46.10;;;;;;5090223;28;19924;-60
2023/09/15 02:07:05;;;;;;;;;;;22.10;46.00;;;;;;5091129;28;19928;-59
2023/09/15 02:09:32;;;;;;;;;;;22.00;45.90;;;;;;5072754;28;19936;-59
2023/09/15 02:11:58;;;;;;;;;;;22.00;46.00;;;;;;5078732;28;19927;-59
2023/09/15 02:14:26;;;;;;;;;;;22.00;46.00;;;;;;5083665;28;20308;-59
2023/09/15 02:16:53;;;;;;;;;;;22.00;46.00;;;;;;5071516;28;19924;-60
2023/09/15 02:19:20;;;;;;;;;;;22.00;46.00;;;;;;5072553;28;20028;-59
2023/09/15 02:21:48;;;;;;;;;;;22.00;46.00;;;;;;5073546;28;19939;-60
2023/09/15 02:24:16;;;;;;;;;;;22.00;46.00;;;;;;5072306;28;19925;-59
2023/09/15 02:26:42;;;;;;;;;;;22.00;46.00;;;;;;5082082;28;20005;-60
2023/09/15 02:29:09;;;;;;;;;;;22.00;46.00;;;;;;5081341;28;19924;-60
2023/09/15 02:31:38;;;;;;;;;;;22.00;46.00;;;;;;5078765;28;19928;-58
2023/09/15 02:34:05;;;;;;;;;;;22.00;46.10;;;;;;5086508;28;19964;-59
2023/09/15 02:36:32;;;;;;;;;;;22.00;46.00;;;;;;5076779;28;19932;-60
2023/09/15 02:39:00;;;;;;;;;;;22.00;46.10;;;;;;5072925;28;19998;-59
2023/09/15 02:41:27;;;;;;;;;;;22.00;46.10;;;;;;5075025;28;19925;-60
2023/09/15 02:43:54;;;;;;;;;;;22.00;46.10;;;;;;5079496;28;19932;-59
2023/09/15 02:46:20;;;;;;;;;;;22.00;46.10;;;;;;5077882;28;19924;-59
2023/09/15 02:48:47;;;;;;;;;;;22.00;46.10;;;;;;5074687;28;19970;-60
2023/09/15 02:51:15;;;;;;;;;;;22.00;46.10;;;;;;5097517;28;19924;-59
2023/09/15 02:53:41;;;;;;;;;;;22.00;46.10;;;;;;5072084;28;19971;-59
2023/09/15 02:56:09;;;;;;;;;;;22.00;46.10;;;;;;5095109;28;19928;-61
2023/09/15 02:58:37;;;;;;;;;;;22.00;46.10;;;;;;5075676;28;19996;-59
2023/09/15 03:01:11;;;;;;;;;;;22.00;46.10;;;;;;5073799;28;20011;-59
2023/09/15 03:03:37;;;;;;;;;;;22.00;46.20;;;;;;5071494;28;19924;-60
2023/09/15 03:06:04;;;;;;;;;;;22.00;46.10;;;;;;5072638;28;19931;-60
2023/09/15 03:08:31;;;;;;;;;;;22.00;46.10;;;;;;5072933;28;19924;-60
2023/09/15 03:10:58;;;;;;;;;;;22.00;46.10;;;;;;5070735;28;19995;-59
2023/09/15 03:13:26;;;;;;;;;;;22.00;46.10;;;;;;5095127;28;19974;-60
2023/09/15 03:15:52;;;;;;;;;;;22.00;46.10;;;;;;5071901;28;20010;-60
2023/09/15 03:18:19;;;;;;;;;;;22.00;46.10;;;;;;5072767;28;19932;-59
2023/09/15 03:20:46;;;;;;;;;;;22.00;46.10;;;;;;5071463;28;19952;-60
2023/09/15 03:23:14;;;;;;;;;;;21.90;46.00;;;;;;5071928;28;19931;-60
2023/09/15 03:25:40;;;;;;;;;;;21.90;46.00;;;;;;5104130;28;19925;-59
2023/09/15 03:28:07;;;;;;;;;;;21.90;46.00;;;;;;5077134;28;19986;-59
2023/09/15 03:30:35;;;;;;;;;;;21.90;46.00;;;;;;5075570;28;19925;-59
2023/09/15 03:33:02;;;;;;;;;;;21.90;46.00;;;;;;5072191;28;19964;-59
2023/09/15 03:35:29;;;;;;;;;;;21.90;46.00;;;;;;5071469;28;19925;-59
2023/09/15 03:37:56;;;;;;;;;;;21.90;46.00;;;;;;5092857;28;19925;-59
2023/09/15 03:40:24;;;;;;;;;;;21.90;46.00;;;;;;5070161;28;19951;-59
2023/09/15 03:42:52;;;;;;;;;;;21.90;46.00;;;;;;5072412;28;20023;-59
2023/09/15 03:45:19;;;;;;;;;;;21.90;46.00;;;;;;5073535;28;19924;-58
2023/09/15 03:47:47;;;;;;;;;;;21.90;46.00;;;;;;5075286;28;20506;-60
2023/09/15 03:50:19;;;;;;;;;;;21.90;45.90;;;;;;5072750;28;19924;-59
2023/09/15 03:52:47;;;;;;;;;;;21.90;46.00;;;;;;5072479;28;20027;-59
2023/09/15 03:55:13;;;;;;;;;;;21.90;45.90;;;;;;5071464;28;19924;-59
2023/09/15 03:57:40;;;;;;;;;;;21.90;45.90;;;;;;5089179;28;19931;-59
2023/09/15 04:00:17;;;;;;;;;;;21.90;45.90;;;;;;5070101;28;22688;-59
2023/09/15 04:02:44;;;;;;;;;;;21.90;45.80;;;;;;5071753;28;20433;-59
2023/09/15 04:05:12;;;;;;;;;;;21.90;45.90;;;;;;5081775;28;20028;-59
2023/09/15 04:07:39;;;;;;;;;;;21.90;46.40;;;;;;5069866;28;20341;-59
2023/09/15 04:10:06;;;;;;;;;;;21.90;45.90;;;;;;5076207;28;19932;-59
2023/09/15 04:12:33;;;;;;;;;;;21.90;45.80;;;;;;5103177;28;19929;-59
2023/09/15 04:15:00;;;;;;;;;;;21.90;45.80;;;;;;5070317;28;19970;-59
2023/09/15 04:17:27;;;;;;;;;;;21.90;45.80;;;;;;5094763;28;19925;-59
2023/09/15 04:19:54;;;;;;;;;;;21.90;45.80;;;;;;5076628;28;19928;-59
2023/09/15 04:22:22;;;;;;;;;;;21.90;45.90;;;;;;5070668;28;19924;-58
2023/09/15 04:24:49;;;;;;;;;;;21.90;45.90;;;;;;5085080;28;19998;-59
2023/09/15 04:27:15;;;;;;;;;;;21.90;45.90;;;;;;5071153;28;19928;-59
2023/09/15 04:29:50;;;;;;;;;;;21.80;45.80;;;;;;5070567;28;19924;-59
2023/09/15 04:32:17;;;;;;;;;;;21.90;45.80;;;;;;5079351;28;19981;-58
2023/09/15 04:34:43;;;;;;;;;;;21.80;45.80;;;;;;5077962;28;20340;-59
2023/09/15 04:37:10;;;;;;;;;;;21.80;45.80;;;;;;5070169;28;19932;-59
2023/09/15 04:39:39;;;;;;;;;;;21.80;45.80;;;;;;5083664;28;19962;-59
2023/09/15 04:42:05;;;;;;;;;;;21.80;45.90;;;;;;5071014;28;19956;-59
2023/09/15 04:44:32;;;;;;;;;;;21.80;45.90;;;;;;5069368;28;19924;-59
2023/09/15 04:47:01;;;;;;;;;;;21.80;45.90;;;;;;5086532;28;19979;-59
2023/09/15 04:49:28;;;;;;;;;;;21.80;45.90;;;;;;5085009;28;19931;-60
2023/09/15 04:51:55;;;;;;;;;;;21.80;45.90;;;;;;5070164;28;19920;-59
2023/09/15 04:54:21;;;;;;;;;;;21.80;45.90;;;;;;5073160;28;19978;-60
2023/09/15 04:56:50;;;;;;;;;;;21.80;46.00;;;;;;5071750;28;19924;-59
2023/09/15 04:59:16;;;;;;;;;;;21.80;46.00;;;;;;5077962;28;19924;-59
2023/09/15 05:01:43;;;;;;;;;;;21.80;46.10;;;;;;5072740;28;19950;-59
2023/09/15 05:04:10;;;;;;;;;;;21.80;46.10;;;;;;5075270;28;19994;-59
2023/09/15 05:06:37;;;;;;;;;;;21.80;46.10;;;;;;5090097;28;19946;-59
2023/09/15 05:09:05;;;;;;;;;;;21.80;46.20;;;;;;5091323;28;20386;-59
2023/09/15 05:11:31;;;;;;;;;;;21.80;46.20;;;;;;5074517;28;20443;-59
2023/09/15 05:14:00;;;;;;;;;;;21.80;46.30;;;;;;5077785;28;19956;-59
2023/09/15 05:16:27;;;;;;;;;;;21.80;46.30;;;;;;5090424;28;19924;-59
2023/09/15 05:18:54;;;;;;;;;;;21.80;46.30;;;;;;5073953;28;19935;-59
2023/09/15 05:21:20;;;;;;;;;;;21.80;46.40;;;;;;5078477;28;19928;-59
2023/09/15 05:23:47;;;;;;;;;;;21.80;46.40;;;;;;5073015;28;19969;-59
2023/09/15 05:26:14;;;;;;;;;;;21.80;46.50;;;;;;5078228;28;19946;-59
2023/09/15 05:28:40;;;;;;;;;;;21.80;46.50;;;;;;5076180;28;19974;-59
2023/09/15 05:31:09;;;;;;;;;;;21.80;46.50;;;;;;5082899;28;19964;-59
2023/09/15 05:33:35;;;;;;;;;;;21.80;46.50;;;;;;5075317;28;19924;-59
2023/09/15 05:36:02;;;;;;;;;;;21.80;46.50;;;;;;5072826;28;20254;-59
2023/09/15 05:38:29;;;;;;;;;;;21.80;46.50;;;;;;5088297;28;19924;-59
2023/09/15 05:40:56;;;;;;;;;;;21.80;46.60;;;;;;5091535;28;19924;-58
2023/09/15 05:43:22;;;;;;;;;;;21.80;46.60;;;;;;5074366;28;19924;-59
2023/09/15 05:45:49;;;;;;;;;;;21.80;46.60;;;;;;5086820;28;19970;-60
2023/09/15 05:48:22;;;;;;;;;;;21.80;46.60;;;;;;5071183;28;19928;-59
2023/09/15 05:50:49;;;;;;;;;;;21.90;46.70;;;;;;5073051;28;19928;-59
2023/09/15 05:53:16;;;;;;;;;;;21.90;46.70;;;;;;5069747;28;19964;-59
2023/09/15 05:55:42;;;;;;;;;;;21.80;46.70;;;;;;5073744;28;19951;-59
2023/09/15 05:58:09;;;;;;;;;;;21.80;46.70;;;;;;5070187;28;20416;-59
2023/09/15 06:00:36;;;;;;;;;;;21.90;46.70;;;;;;5072486;28;19936;-57
2023/09/15 06:03:03;;;;;;;;;;;21.90;46.70;;;;;;5074679;28;20283;-59
2023/09/15 06:05:31;;;;;;;;;;;21.80;46.70;;;;;;5071213;28;19974;-59
2023/09/15 06:07:58;;;;;;;;;;;21.80;46.70;;;;;;5074136;28;20371;-59
2023/09/15 06:10:24;;;;;;;;;;;21.90;46.70;;;;;;5073725;28;19974;-59
2023/09/15 06:12:51;;;;;;;;;;;21.80;47.30;;;;;;5088616;28;19932;-60
2023/09/15 06:15:18;;;;;;;;;;;21.80;46.70;;;;;;5066461;28;19929;-59
2023/09/15 06:17:45;;;;;;;;;;;21.80;46.70;;;;;;5079077;28;19970;-59
2023/09/15 06:20:12;;;;;;;;;;;21.80;46.80;;;;;;5080420;28;19928;-59
2023/09/15 06:22:40;;;;;;;;;;;21.80;46.80;;;;;;5074501;28;19981;-60
2023/09/15 06:25:07;;;;;;;;;;;21.80;47.40;;;;;;5074147;28;20009;-59
2023/09/15 06:27:33;;;;;;;;;;;21.80;46.90;;;;;;5067160;28;19928;-61
2023/09/15 06:30:00;;;;;;;;;;;21.80;47.00;;;;;;5072639;28;19930;-61
2023/09/15 06:32:27;;;;;;;;;;;21.80;47.10;;;;;;5074765;28;19946;-60
2023/09/15 06:34:53;;;;;;;;;;;21.80;47.10;;;;;;5068651;28;19925;-60
2023/09/15 06:37:20;;;;;;;;;;;21.90;47.20;;;;;;5104400;28;19932;-61
2023/09/15 06:39:48;;;;;;;;;;;21.90;47.20;;;;;;5089431;28;19995;-60
2023/09/15 06:42:17;;;;;;;;;;;21.90;47.30;;;;;;5075279;28;19936;-60
2023/09/15 06:44:44;;;;;;;;;;;21.90;47.30;;;;;;5071807;28;19924;-61
2023/09/15 06:47:10;;;;;;;;;;;21.90;47.30;;;;;;5078660;28;20006;-61
2023/09/15 06:49:38;;;;;;;;;;;21.90;47.30;;;;;;5072463;28;19924;-60
2023/09/15 06:52:05;;;;;;;;;;;21.90;47.30;;;;;;5072485;28;19978;-60
2023/09/15 06:54:32;;;;;;;;;;;21.90;47.40;;;;;;5072315;28;19924;-61
2023/09/15 06:57:00;;;;;;;;;;;21.90;47.40;;;;;;5087177;28;19931;-61
2023/09/15 06:59:27;;;;;;;;;;;21.90;47.50;;;;;;5087286;28;19924;-61
2023/09/15 07:01:54;;;;;;;;;;;22.00;47.60;;;;;;5086609;28;19964;-61
2023/09/15 07:04:21;;;;;;;;;;;21.90;47.50;;;;;;5069028;28;19960;-61
2023/09/15 07:06:48;;;;;;;;;;;22.00;47.60;;;;;;5068626;28;19970;-61
2023/09/15 07:09:17;;;;;;;;;;;22.00;47.60;;;;;;5071241;28;19928;-61
2023/09/15 07:11:44;;;;;;;;;;;22.00;47.60;;;;;;5089956;28;19978;-61
2023/09/15 07:14:12;;;;;;;;;;;22.00;47.70;;;;;;5087763;28;19929;-62
2023/09/15 07:16:39;;;;;;;;;;;22.00;47.70;;;;;;5085826;28;19928;-62
2023/09/15 07:19:06;;;;;;;;;;;22.00;47.70;;;;;;5072140;28;19928;-62
2023/09/15 07:21:32;;;;;;;;;;;22.00;47.70;;;;;;5072416;28;19928;-59
2023/09/15 07:23:59;;;;;;;;;;;22.00;47.70;;;;;;5085852;28;20499;-60
2023/09/15 07:26:26;;;;;;;;;;;22.00;47.70;;;;;;5086666;28;19928;-60
2023/09/15 07:28:53;;;;;;;;;;;22.00;47.70;;;;;;5086468;28;19925;-60
2023/09/15 07:31:21;;;;;;;;;;;22.00;47.80;;;;;;5073857;28;19928;-61
2023/09/15 07:33:48;;;;;;;;;;;22.00;47.80;;;;;;5072686;28;20018;-60
2023/09/15 07:36:15;;;;;;;;;;;22.00;47.80;;;;;;5070803;28;19962;-60
2023/09/15 07:38:42;;;;;;;;;;;22.00;47.80;;;;;;5071205;28;19939;-60
2023/09/15 07:41:08;;;;;;;;;;;22.10;48.50;;;;;;5071364;28;19931;-60
2023/09/15 07:43:35;;;;;;;;;;;22.10;47.90;;;;;;5071376;28;19932;-60
2023/09/15 07:46:02;;;;;;;;;;;22.10;48.00;;;;;;5073109;28;19978;-60
2023/09/15 07:48:31;;;;;;;;;;;22.10;48.00;;;;;;5087358;28;19924;-59
2023/09/15 07:50:58;;;;;;;;;;;22.10;48.00;;;;;;5069811;28;19925;-59
2023/09/15 07:53:25;;;;;;;;;;;22.10;48.10;;;;;;5072585;28;20207;-59
2023/09/15 07:55:52;;;;;;;;;;;22.10;48.10;;;;;;5074036;28;19924;-59
2023/09/15 07:58:19;;;;;;;;;;;22.10;48.10;;;;;;5064907;28;19928;-60
2023/09/15 08:00:46;;;;;;;;;;;22.10;48.10;;;;;;5071931;28;19929;-59
2023/09/15 08:03:12;;;;;;;;;;;22.10;48.10;;;;;;5071676;28;19928;-60
2023/09/15 08:05:41;;;;;;;;;;;22.10;48.10;;;;;;5086390;28;19929;-59
2023/09/15 08:08:07;;;;;;;;;;;22.10;48.10;;;;;;5083674;28;19929;-60
2023/09/15 08:10:34;;;;;;;;;;;22.10;48.20;;;;;;5069638;28;19925;-60
2023/09/15 08:13:01;;;;;;;;;;;22.10;48.20;;;;;;5081793;28;19946;-60
2023/09/15 08:15:28;;;;;;;;;;;22.10;48.30;;;;;;5077562;28;19935;-60
2023/09/15 08:17:55;;;;;;;;;;;22.10;48.20;;;;;;5105058;28;19974;-59
2023/09/15 08:20:22;;;;;;;;;;;22.10;48.30;;;;;;5071047;28;19946;-61
2023/09/15 08:22:50;;;;;;;;;;;22.10;48.20;;;;;;5069421;28;20469;-59
2023/09/15 08:25:17;;;;;;;;;;;22.10;48.30;;;;;;5077492;28;19962;-59
2023/09/15 08:27:47;;;;;;;;;;;22.10;48.30;;;;;;5074861;28;19924;-61
2023/09/15 08:30:14;;;;;;;;;;;22.10;48.40;;;;;;5075152;28;19949;-61
2023/09/15 08:32:42;;;;;;;;;;;22.20;48.50;;;;;;5076191;28;19928;-61
2023/09/15 08:35:09;;;;;;;;;;;22.20;48.50;;;;;;5083636;28;20015;-61
2023/09/15 08:37:36;;;;;;;;;;;22.20;48.50;;;;;;5076780;28;19924;-60
2023/09/15 08:40:05;;;;;;;;;;;22.20;48.50;;;;;;5073760;28;19977;-61
2023/09/15 08:42:31;;;;;;;;;;;22.20;48.50;;;;;;5075377;28;19940;-60
2023/09/15 08:44:58;;;;;;;;;;;22.20;48.50;;;;;;5074268;28;19932;-60
2023/09/15 08:47:27;;;;;;;;;;;22.20;48.60;;;;;;5089418;28;19971;-61
2023/09/15 08:49:54;;;;;;;;;;;22.20;48.60;;;;;;5086396;28;19925;-60
2023/09/15 08:52:20;;;;;;;;;;;22.20;48.60;;;;;;5076329;28;19981;-60
2023/09/15 08:54:47;;;;;;;;;;;22.20;48.60;;;;;;5089764;28;19924;-61
2023/09/15 08:57:16;;;;;;;;;;;22.20;48.60;;;;;;5081082;28;20011;-63
2023/09/15 08:59:42;;;;;;;;;;;22.20;48.70;;;;;;5072975;28;19924;-61
2023/09/15 09:02:10;;;;;;;;;;;22.20;48.70;;;;;;5072729;28;19962;-62
2023/09/15 09:04:36;;;;;;;;;;;22.20;48.70;;;;;;5078286;28;19946;-60
2023/09/15 09:07:03;;;;;;;;;;;22.20;48.70;;;;;;5074122;28;19925;-62
2023/09/15 09:09:30;;;;;;;;;;;22.20;48.70;;;;;;5072566;28;19930;-61
2023/09/15 09:11:57;;;;;;;;;;;22.20;48.80;;;;;;5078442;28;19924;-61
2023/09/15 09:14:25;;;;;;;;;;;22.20;48.80;;;;;;5090521;28;19933;-60
2023/09/15 09:16:52;;;;;;;;;;;22.30;48.90;;;;;;5075407;28;19970;-60
2023/09/15 09:19:19;;;;;;;;;;;22.30;48.90;;;;;;5086818;28;20332;-60
2023/09/15 09:21:46;;;;;;;;;;;22.30;48.90;;;;;;5075229;28;20013;-60
2023/09/15 09:24:14;;;;;;;;;;;22.30;48.90;;;;;;5080827;28;20216;-60
2023/09/15 09:26:41;;;;;;;;;;;22.30;48.90;;;;;;5074406;28;19928;-61
2023/09/15 09:29:08;;;;;;;;;;;22.30;48.90;;;;;;5074747;28;20734;-59
2023/09/15 09:31:36;;;;;;;;;;;22.30;48.90;;;;;;5093681;28;19924;-59
2023/09/15 09:34:04;;;;;;;;;;;22.30;48.90;;;;;;5073999;28;19925;-59
2023/09/15 09:36:30;;;;;;;;;;;22.30;49.00;;;;;;5076620;28;19939;-60
2023/09/15 09:38:59;;;;;;;;;;;22.30;49.00;;;;;;5075728;28;20381;-60
2023/09/15 09:41:28;;;;;;;;;;;22.30;49.00;;;;;;5078091;28;19924;-59
2023/09/15 09:43:55;;;;;;;;;;;22.30;49.00;;;;;;5082607;28;19935;-59
2023/09/15 09:46:22;;;;;;;;;;;22.30;49.10;;;;;;5080664;28;19924;-59
2023/09/15 09:48:50;;;;;;;;;;;22.30;49.10;;;;;;5097850;28;19932;-60
2023/09/15 09:51:17;;;;;;;;;;;22.30;49.10;;;;;;5089231;28;19928;-60
2023/09/15 09:53:44;;;;;;;;;;;22.30;49.10;;;;;;5089428;28;20572;-60
2023/09/15 09:56:11;;;;;;;;;;;22.30;49.10;;;;;;5094503;28;19932;-60
2023/09/15 09:58:38;;;;;;;;;;;22.30;49.20;;;;;;5074524;28;19932;-60
2023/09/15 10:01:06;;;;;;;;;;;22.30;49.80;;;;;;5061787;28;19955;-60
2023/09/15 10:03:33;;;;;;;;;;;22.30;49.20;;;;;;5062018;28;19931;-59
2023/09/15 10:06:01;;;;;;;;;;;22.30;49.30;;;;;;5072823;28;19941;-60
2023/09/15 10:08:29;;;;;;;;;;;22.30;49.30;;;;;;5080405;28;19952;-60
2023/09/15 10:10:56;;;;;;;;;;;22.30;49.30;;;;;;5057974;28;19924;-60
2023/09/15 10:13:23;;;;;;;;;;;22.30;49.30;;;;;;5059521;28;19982;-59
2023/09/15 10:15:50;;;;;;;;;;;22.30;49.30;;;;;;5055756;28;19929;-60
2023/09/15 10:18:17;;;;;;;;;;;22.30;49.30;;;;;;5072600;28;19970;-60
2023/09/15 10:20:44;;;;;;;;;;;22.30;49.30;;;;;;5058433;28;19924;-59
2023/09/15 10:23:13;;;;;;;;;;;22.30;49.40;;;;;;5057329;28;19931;-60
2023/09/15 10:25:41;;;;;;;;;;;22.30;49.40;;;;;;5065834;28;19928;-60
2023/09/15 10:28:07;;;;;;;;;;;22.30;49.40;;;;;;5071220;28;19925;-60
2023/09/15 10:30:35;;;;;;;;;;;22.30;49.40;;;;;;5078486;28;20312;-59
2023/09/15 10:33:03;;;;;;;;;;;22.30;49.50;;;;;;5069736;28;19931;-60
2023/09/15 10:35:29;;;;;;;;;;;22.30;49.50;;;;;;5057241;28;20474;-60
2023/09/15 10:37:57;;;;;;;;;;;22.30;49.50;;;;;;5059950;28;19925;-60
2023/09/15 10:40:25;;;;;;;;;;;22.30;49.50;;;;;;5068655;28;20019;-60
2023/09/15 10:42:52;;;;;;;;;;;22.30;49.50;;;;;;5057312;28;19924;-60
2023/09/15 10:45:19;;;;;;;;;;;22.30;49.60;;;;;;5051722;28;19928;-59
2023/09/15 10:47:55;;;;;;;;;;;22.30;49.60;;;;;;5077315;28;19963;-60
2023/09/15 10:50:29;;;;;;;;;;;22.30;49.60;;;;;;5078751;28;19955;-60
2023/09/15 10:52:56;;;;;;;;;;;22.30;49.50;;;;;;5053767;28;19928;-59
2023/09/15 10:55:24;;;;;;;;;;;22.30;49.50;;;;;;5071819;28;19978;-59
2023/09/15 10:57:51;;;;;;;;;;;22.30;49.50;;;;;;5071443;28;19925;-60
2023/09/15 11:00:18;;;;;;;;;;;22.30;49.60;;;;;;5079822;28;19930;-60
2023/09/15 11:02:46;;;;;;;;;;;22.30;49.60;;;;;;5070253;28;19928;-60
2023/09/15 11:05:13;;;;;;;;;;;22.30;49.60;;;;;;5069440;28;20417;-60
2023/09/15 11:07:40;;;;;;;;;;;22.30;49.60;;;;;;5057787;28;20349;-60
2023/09/15 11:10:07;;;;;;;;;;;22.30;49.60;;;;;;5070857;28;19924;-60
2023/09/15 11:12:36;;;;;;;;;;;22.30;49.50;;;;;;5077125;28;19931;-60
2023/09/15 11:15:03;;;;;;;;;;;22.30;49.60;;;;;;5054841;28;20435;-60
2023/09/15 11:17:30;;;;;;;;;;;22.30;49.50;;;;;;5053876;28;19931;-60
2023/09/15 11:19:57;;;;;;;;;;;22.30;49.50;;;;;;5054477;28;20365;-60
2023/09/15 11:22:24;;;;;;;;;;;22.30;49.50;;;;;;5073638;28;19928;-60
2023/09/15 11:24:51;;;;;;;;;;;22.30;49.50;;;;;;5051950;28;19928;-60
2023/09/15 11:27:18;;;;;;;;;;;22.30;49.50;;;;;;5053015;28;19930;-60
2023/09/15 11:29:46;;;;;;;;;;;22.40;49.60;;;;;;5071132;28;19925;-60
2023/09/15 11:32:13;;;;;;;;;;;22.40;49.60;;;;;;5067250;28;19932;-60
2023/09/15 11:34:40;;;;;;;;;;;22.40;49.60;;;;;;5058815;28;19981;-60
2023/09/15 11:37:06;;;;;;;;;;;22.40;49.60;;;;;;5057640;28;19925;-60
2023/09/15 11:39:33;;;;;;;;;;;22.40;49.60;;;;;;5070364;28;19931;-60
2023/09/15 11:42:01;;;;;;;;;;;22.30;49.50;;;;;;5076592;28;19929;-60
2023/09/15 11:44:29;;;;;;;;;;;22.30;49.40;;;;;;5069669;28;19978;-60
2023/09/15 11:46:57;;;;;;;;;;;22.30;49.30;;;;;;5069173;28;19924;-60
2023/09/15 11:49:25;;;;;;;;;;;22.30;49.30;;;;;;5063003;28;19924;-60
2023/09/15 11:51:52;;;;;;;;;;;22.30;49.30;;;;;;5056170;28;20045;-60
2023/09/15 11:54:19;;;;;;;;;;;22.20;49.20;;;;;;5061742;28;19970;-60
2023/09/15 11:56:46;;;;;;;;;;;22.20;49.10;;;;;;5079465;28;19935;-60
2023/09/15 11:59:13;;;;;;;;;;;22.20;49.10;;;;;;5060622;28;19932;-60
2023/09/15 12:01:40;;;;;;;;;;;22.20;49.20;;;;;;5068761;28;19933;-60
2023/09/15 12:04:09;;;;;;;;;;;22.10;49.30;;;;;;5054700;28;19925;-60
2023/09/15 12:06:36;;;;;;;;;;;22.10;49.40;;;;;;5081170;28;19924;-60
2023/09/15 12:09:03;;;;;;;;;;;22.10;49.30;;;;;;5053801;28;19925;-60
2023/09/15 12:11:30;;;;;;;;;;;22.10;49.30;;;;;;5056658;28;19936;-60
2023/09/15 12:13:58;;;;;;;;;;;22.10;49.40;;;;;;5076042;28;20607;-60
2023/09/15 12:16:26;;;;;;;;;;;22.10;49.50;;;;;;5055804;28;19924;-60
2023/09/15 12:18:52;;;;;;;;;;;22.10;49.50;;;;;;5059997;28;19932;-60
2023/09/15 12:21:24;;;;;;;;;;;22.10;49.40;;;;;;5056927;28;19931;-60
2023/09/15 12:23:54;;;;;;;;;;;22.10;49.40;;;;;;5073072;28;19935;-60
2023/09/15 12:26:21;;;;;;;;;;;22.10;49.50;;;;;;5055729;28;19968;-60
2023/09/15 12:28:48;;;;;;;;;;;22.10;49.40;;;;;;5052406;28;19929;-60
2023/09/15 12:31:15;;;;;;;;;;;22.10;49.40;;;;;;5051929;28;19935;-60
2023/09/15 12:33:43;;;;;;;;;;;22.00;49.40;;;;;;5052831;28;19924;-60
2023/09/15 12:36:12;;;;;;;;;;;22.00;49.30;;;;;;5063309;28;20255;-60
2023/09/15 12:38:40;;;;;;;;;;;22.00;49.20;;;;;;5081219;28;19928;-60
2023/09/15 12:41:08;;;;;;;;;;;22.00;49.30;;;;;;5070021;28;20012;-60
2023/09/15 12:43:35;;;;;;;;;;;22.00;49.50;;;;;;5086696;28;19932;-60
2023/09/15 12:46:03;;;;;;;;;;;22.00;49.50;;;;;;5060311;28;19928;-60
2023/09/15 12:48:29;;;;;;;;;;;22.00;49.60;;;;;;5072757;28;19991;-60
2023/09/15 12:50:56;;;;;;;;;;;22.00;49.60;;;;;;5058484;28;19929;-60
2023/09/15 12:53:23;;;;;;;;;;;22.00;49.60;;;;;;5054260;28;19932;-60
2023/09/15 12:55:51;;;;;;;;;;;22.00;49.70;;;;;;5073226;28;19924;-60
2023/09/15 12:58:18;;;;;;;;;;;22.00;49.80;;;;;;5063840;28;19924;-60
2023/09/15 13:00:45;;;;;;;;;;;22.00;49.90;;;;;;5086689;28;19932;-60
2023/09/15 13:03:13;;;;;;;;;;;22.00;49.80;;;;;;5072643;28;19928;-60
2023/09/15 13:05:39;;;;;;;;;;;22.00;49.80;;;;;;5070990;28;19988;-60
2023/09/15 13:08:06;;;;;;;;;;;22.00;49.90;;;;;;5069164;28;19931;-60
2023/09/15 13:10:34;;;;;;;;;;;22.00;49.90;;;;;;5068996;28;20148;-60
2023/09/15 13:13:02;;;;;;;;;;;22.00;49.90;;;;;;5077756;28;19924;-60
2023/09/15 13:15:29;;;;;;;;;;;22.00;50.00;;;;;;5097413;28;19925;-60
2023/09/15 13:17:56;;;;;;;;;;;22.00;50.00;;;;;;5076384;28;19986;-60
2023/09/15 13:20:23;;;;;;;;;;;22.00;50.00;;;;;;5080618;28;19924;-60
2023/09/15 13:22:50;;;;;;;;;;;22.00;50.10;;;;;;5091383;28;20019;-60
2023/09/15 13:25:17;;;;;;;;;;;22.00;50.20;;;;;;5072886;28;19928;-60
2023/09/15 13:27:43;;;;;;;;;;;22.00;50.10;;;;;;5076726;28;19967;-60
2023/09/15 13:30:13;;;;;;;;;;;22.00;50.10;;;;;;5089253;28;19954;-60
2023/09/15 13:32:40;;;;;;;;;;;22.00;50.20;;;;;;5079242;28;19989;-60
2023/09/15 13:35:07;;;;;;;;;;;22.00;50.40;;;;;;5098965;28;20022;-60
2023/09/15 13:37:34;;;;;;;;;;;22.00;50.10;;;;;;5076436;28;20325;-60
2023/09/15 13:40:00;;;;;;;;;;;22.00;50.10;;;;;;5067948;28;19924;-61
2023/09/15 13:42:31;;;;;;;;;;;22.00;50.00;;;;;;5078633;28;19973;-60
2023/09/15 13:44:58;;;;;;;;;;;22.00;50.00;;;;;;5074361;28;19924;-60
2023/09/15 13:47:26;;;;;;;;;;;22.00;50.00;;;;;;5082866;28;19978;-60
2023/09/15 13:49:53;;;;;;;;;;;22.00;50.00;;;;;;5075989;28;19929;-60
2023/09/15 13:52:20;;;;;;;;;;;22.00;50.00;;;;;;5077633;28;19924;-61
2023/09/15 13:54:47;;;;;;;;;;;22.00;50.00;;;;;;5072419;28;19928;-60
2023/09/15 13:57:14;;;;;;;;;;;22.00;50.00;;;;;;5072988;28;19959;-60
2023/09/15 13:59:41;;;;;;;;;;;22.00;49.90;;;;;;5075429;28;19968;-60
2023/09/15 14:02:07;;;;;;;;;;;22.00;49.90;;;;;;5087767;28;19932;-60
2023/09/15 14:04:35;;;;;;;;;;;22.00;49.90;;;;;;5092009;28;20012;-60
2023/09/15 14:07:04;;;;;;;;;;;22.00;49.90;;;;;;5091314;28;19929;-60
2023/09/15 14:09:31;;;;;;;;;;;22.00;49.90;;;;;;5074213;28;19925;-61
2023/09/15 14:11:58;;;;;;;;;;;22.10;50.00;;;;;;5086652;28;19940;-60
2023/09/15 14:14:26;;;;;;;;;;;22.10;50.00;;;;;;5105090;28;19928;-61
2023/09/15 14:16:52;;;;;;;;;;;22.10;50.00;;;;;;5071374;28;19932;-60